sensor_id;sensor_type;location;lat;lon;timestamp;temperature;humidity
43665;DHT22;29263;48.172;11.484;2023-12-28T00:02:06;1.60;99.90
43665;DHT22;29263;48.172;11.484;2023-12-28T00:04:32;1.60;99.90
43665;DHT22;29263;48.172;11.484;2023-12-28T00:07:00;1.60;99.90
43665;DHT22;29263;48.172;11.484;2023-12-28T00:09:25;1.60;99.90
43665;DHT22;29263;48.172;11.484;2023-12-28T00:11:51;1.60;99.90
43665;DHT22;29263;48.172;11.484;2023-12-28T00:14:16;1.60;99.90
43665;DHT22;29263;48.172;11.484;2023-12-28T00:16:42;1.60;99.90
43665;DHT22;29263;48.172;11.484;2023-12-28T00:19:08;1.60;99.90
43665;DHT22;29263;48.172;11.484;2023-12-28T00:21:33;1.60;99.90
43665;DHT22;29263;48.172;11.484;2023-12-28T00:23:59;1.60;99.90
43665;DHT22;29263;48.172;11.484;2023-12-28T00:26:24;1.60;99.90
43665;DHT22;29263;48.172;11.484;2023-12-28T00:28:50;1.70;99.90
43665;DHT22;29263;48.172;11.484;2023-12-28T00:31:15;1.50;99.90
43665;DHT22;29263;48.172;11.484;2023-12-28T00:33:41;1.80;99.90
43665;DHT22;29263;48.172;11.484;2023-12-28T00:36:08;1.80;99.90
43665;DHT22;29263;48.172;11.484;2023-12-28T00:38:33;1.60;99.90
43665;DHT22;29263;48.172;11.484;2023-12-28T00:40:59;1.80;99.90
43665;DHT22;29263;48.172;11.484;2023-12-28T00:43:25;1.50;99.90
43665;DHT22;29263;48.172;11.484;2023-12-28T00:45:50;1.60;99.90
43665;DHT22;29263;48.172;11.484;2023-12-28T00:48:16;1.50;99.90
43665;DHT22;29263;48.172;11.484;2023-12-28T00:50:41;1.50;99.90
43665;DHT22;29263;48.172;11.484;2023-12-28T00:53:07;1.60;99.90
43665;DHT22;29263;48.172;11.484;2023-12-28T00:55:32;1.60;99.90
43665;DHT22;29263;48.172;11.484;2023-12-28T00:57:58;1.60;99.90
43665;DHT22;29263;48.172;11.484;2023-12-28T01:00:24;1.60;99.90
43665;DHT22;29263;48.172;11.484;2023-12-28T01:02:49;1.40;99.90
43665;DHT22;29263;48.172;11.484;2023-12-28T01:05:16;1.50;99.90
43665;DHT22;29263;48.172;11.484;2023-12-28T01:07:42;1.40;99.90
43665;DHT22;29263;48.172;11.484;2023-12-28T01:10:07;1.60;99.90
43665;DHT22;29263;48.172;11.484;2023-12-28T01:12:33;1.50;99.90
43665;DHT22;29263;48.172;11.484;2023-12-28T01:14:59;1.50;99.90
43665;DHT22;29263;48.172;11.484;2023-12-28T01:17:25;1.50;99.90
43665;DHT22;29263;48.172;11.484;2023-12-28T01:19:50;1.50;99.90
43665;DHT22;29263;48.172;11.484;2023-12-28T01:22:16;1.40;99.90
43665;DHT22;29263;48.172;11.484;2023-12-28T01:24:41;1.40;99.90
43665;DHT22;29263;48.172;11.484;2023-12-28T01:27:07;1.50;99.90
43665;DHT22;29263;48.172;11.484;2023-12-28T01:29:32;1.40;99.90
43665;DHT22;29263;48.172;11.484;2023-12-28T01:31:59;1.50;99.90
43665;DHT22;29263;48.172;11.484;2023-12-28T01:34:25;1.50;99.90
43665;DHT22;29263;48.172;11.484;2023-12-28T01:36:50;1.40;99.90
43665;DHT22;29263;48.172;11.484;2023-12-28T01:39:16;1.30;99.90
43665;DHT22;29263;48.172;11.484;2023-12-28T01:41:44;1.60;99.90
43665;DHT22;29263;48.172;11.484;2023-12-28T01:44:10;1.40;99.90
43665;DHT22;29263;48.172;11.484;2023-12-28T01:46:36;1.40;99.90
43665;DHT22;29263;48.172;11.484;2023-12-28T01:49:01;1.40;99.90
43665;DHT22;29263;48.172;11.484;2023-12-28T01:51:28;1.40;99.90
43665;DHT22;29263;48.172;11.484;2023-12-28T01:53:54;1.60;99.90
43665;DHT22;29263;48.172;11.484;2023-12-28T01:56:20;1.40;99.90
43665;DHT22;29263;48.172;11.484;2023-12-28T01:58:46;1.40;99.90
43665;DHT22;29263;48.172;11.484;2023-12-28T02:01:13;1.30;99.90
43665;DHT22;29263;48.172;11.484;2023-12-28T02:03:39;1.30;99.90
43665;DHT22;29263;48.172;11.484;2023-12-28T02:06:06;1.30;99.90
43665;DHT22;29263;48.172;11.484;2023-12-28T02:08:32;1.20;99.90
43665;DHT22;29263;48.172;11.484;2023-12-28T02:10:58;1.20;99.90
43665;DHT22;29263;48.172;11.484;2023-12-28T02:13:24;1.20;99.90
43665;DHT22;29263;48.172;11.484;2023-12-28T02:16:41;1.10;99.90
43665;DHT22;29263;48.172;11.484;2023-12-28T02:18:50;1.10;99.90
43665;DHT22;29263;48.172;11.484;2023-12-28T02:21:17;1.10;99.90
43665;DHT22;29263;48.172;11.484;2023-12-28T02:23:49;1.10;99.90
43665;DHT22;29263;48.172;11.484;2023-12-28T02:26:18;1.10;99.90
43665;DHT22;29263;48.172;11.484;2023-12-28T02:28:44;1.00;99.90
43665;DHT22;29263;48.172;11.484;2023-12-28T02:31:17;1.00;99.90
43665;DHT22;29263;48.172;11.484;2023-12-28T02:33:50;1.00;99.90
43665;DHT22;29263;48.172;11.484;2023-12-28T02:36:22;1.10;99.90
43665;DHT22;29263;48.172;11.484;2023-12-28T02:38:49;1.10;99.90
43665;DHT22;29263;48.172;11.484;2023-12-28T02:41:16;1.30;99.90
43665;DHT22;29263;48.172;11.484;2023-12-28T02:43:43;1.10;99.90
43665;DHT22;29263;48.172;11.484;2023-12-28T02:46:08;1.00;99.90
43665;DHT22;29263;48.172;11.484;2023-12-28T02:48:34;1.10;99.90
43665;DHT22;29263;48.172;11.484;2023-12-28T02:51:00;1.10;99.90
43665;DHT22;29263;48.172;11.484;2023-12-28T02:53:25;1.00;99.90
43665;DHT22;29263;48.172;11.484;2023-12-28T02:55:51;1.10;99.90
43665;DHT22;29263;48.172;11.484;2023-12-28T02:58:16;1.10;99.90
43665;DHT22;29263;48.172;11.484;2023-12-28T03:00:42;1.00;99.90
43665;DHT22;29263;48.172;11.484;2023-12-28T03:03:07;1.00;99.90
43665;DHT22;29263;48.172;11.484;2023-12-28T03:05:34;0.90;99.90
43665;DHT22;29263;48.172;11.484;2023-12-28T03:07:59;1.00;99.90
43665;DHT22;29263;48.172;11.484;2023-12-28T03:10:25;0.80;99.90
43665;DHT22;29263;48.172;11.484;2023-12-28T03:12:50;0.70;99.90
43665;DHT22;29263;48.172;11.484;2023-12-28T03:15:16;0.80;99.90
43665;DHT22;29263;48.172;11.484;2023-12-28T03:17:42;0.90;99.90
43665;DHT22;29263;48.172;11.484;2023-12-28T03:20:08;0.80;99.90
43665;DHT22;29263;48.172;11.484;2023-12-28T03:22:34;0.80;99.90
43665;DHT22;29263;48.172;11.484;2023-12-28T03:25:00;0.90;99.90
43665;DHT22;29263;48.172;11.484;2023-12-28T03:27:26;0.70;99.90
43665;DHT22;29263;48.172;11.484;2023-12-28T03:29:52;0.80;99.90
43665;DHT22;29263;48.172;11.484;2023-12-28T03:32:18;0.80;99.90
43665;DHT22;29263;48.172;11.484;2023-12-28T03:34:43;0.70;99.90
43665;DHT22;29263;48.172;11.484;2023-12-28T03:37:09;0.80;99.90
43665;DHT22;29263;48.172;11.484;2023-12-28T03:39:36;0.80;99.90
43665;DHT22;29263;48.172;11.484;2023-12-28T03:42:02;0.70;99.90
43665;DHT22;29263;48.172;11.484;2023-12-28T03:44:28;0.80;99.90
43665;DHT22;29263;48.172;11.484;2023-12-28T03:46:53;0.80;99.90
43665;DHT22;29263;48.172;11.484;2023-12-28T03:49:20;0.80;99.90
43665;DHT22;29263;48.172;11.484;2023-12-28T03:51:48;1.00;99.90
43665;DHT22;29263;48.172;11.484;2023-12-28T03:54:16;0.90;99.90
43665;DHT22;29263;48.172;11.484;2023-12-28T03:56:42;0.90;99.90
43665;DHT22;29263;48.172;11.484;2023-12-28T03:59:09;0.90;99.90
43665;DHT22;29263;48.172;11.484;2023-12-28T04:01:34;1.00;99.90
43665;DHT22;29263;48.172;11.484;2023-12-28T04:04:00;1.10;99.90
43665;DHT22;29263;48.172;11.484;2023-12-28T04:06:26;1.20;99.90
43665;DHT22;29263;48.172;11.484;2023-12-28T04:08:52;1.30;99.90
43665;DHT22;29263;48.172;11.484;2023-12-28T04:11:17;1.30;99.90
43665;DHT22;29263;48.172;11.484;2023-12-28T04:13:43;1.20;99.90
43665;DHT22;29263;48.172;11.484;2023-12-28T04:16:12;1.30;99.90
43665;DHT22;29263;48.172;11.484;2023-12-28T04:18:38;1.40;99.90
43665;DHT22;29263;48.172;11.484;2023-12-28T04:21:03;1.30;99.90
43665;DHT22;29263;48.172;11.484;2023-12-28T04:23:29;1.30;99.90
43665;DHT22;29263;48.172;11.484;2023-12-28T04:25:55;1.30;99.90
43665;DHT22;29263;48.172;11.484;2023-12-28T04:28:20;1.50;99.90
43665;DHT22;29263;48.172;11.484;2023-12-28T04:30:46;1.30;99.90
43665;DHT22;29263;48.172;11.484;2023-12-28T04:33:12;1.30;99.90
43665;DHT22;29263;48.172;11.484;2023-12-28T04:35:37;1.30;99.90
43665;DHT22;29263;48.172;11.484;2023-12-28T04:38:03;1.30;99.90
43665;DHT22;29263;48.172;11.484;2023-12-28T04:40:28;1.40;99.90
43665;DHT22;29263;48.172;11.484;2023-12-28T04:42:54;1.40;99.90
43665;DHT22;29263;48.172;11.484;2023-12-28T04:45:20;1.50;99.90
43665;DHT22;29263;48.172;11.484;2023-12-28T04:47:47;1.50;99.90
43665;DHT22;29263;48.172;11.484;2023-12-28T04:50:13;1.40;99.90
43665;DHT22;29263;48.172;11.484;2023-12-28T04:52:38;1.50;99.90
43665;DHT22;29263;48.172;11.484;2023-12-28T04:55:06;1.70;99.90
43665;DHT22;29263;48.172;11.484;2023-12-28T04:57:32;1.60;99.90
43665;DHT22;29263;48.172;11.484;2023-12-28T04:59:57;1.80;99.90
43665;DHT22;29263;48.172;11.484;2023-12-28T05:02:23;1.60;99.90
43665;DHT22;29263;48.172;11.484;2023-12-28T05:04:49;1.50;99.90
43665;DHT22;29263;48.172;11.484;2023-12-28T05:07:14;1.50;99.90
43665;DHT22;29263;48.172;11.484;2023-12-28T05:09:40;1.40;99.90
43665;DHT22;29263;48.172;11.484;2023-12-28T05:12:05;1.50;99.90
43665;DHT22;29263;48.172;11.484;2023-12-28T05:14:31;1.60;99.90
43665;DHT22;29263;48.172;11.484;2023-12-28T05:16:57;1.60;99.90
43665;DHT22;29263;48.172;11.484;2023-12-28T05:19:22;1.60;99.90
43665;DHT22;29263;48.172;11.484;2023-12-28T05:21:48;1.70;99.90
43665;DHT22;29263;48.172;11.484;2023-12-28T05:24:13;1.70;99.90
43665;DHT22;29263;48.172;11.484;2023-12-28T05:26:39;1.70;99.90
43665;DHT22;29263;48.172;11.484;2023-12-28T05:29:05;1.60;99.90
43665;DHT22;29263;48.172;11.484;2023-12-28T05:31:30;1.70;99.90
43665;DHT22;29263;48.172;11.484;2023-12-28T05:33:56;1.70;99.90
43665;DHT22;29263;48.172;11.484;2023-12-28T05:36:24;1.60;99.90
43665;DHT22;29263;48.172;11.484;2023-12-28T05:38:49;1.50;99.90
43665;DHT22;29263;48.172;11.484;2023-12-28T05:41:15;1.40;99.90
43665;DHT22;29263;48.172;11.484;2023-12-28T05:43:40;1.60;99.90
43665;DHT22;29263;48.172;11.484;2023-12-28T05:46:06;1.50;99.90
43665;DHT22;29263;48.172;11.484;2023-12-28T05:48:31;1.50;99.90
43665;DHT22;29263;48.172;11.484;2023-12-28T05:50:57;1.50;99.90
43665;DHT22;29263;48.172;11.484;2023-12-28T05:53:26;1.70;99.90
43665;DHT22;29263;48.172;11.484;2023-12-28T05:55:53;1.50;99.90
43665;DHT22;29263;48.172;11.484;2023-12-28T05:58:19;1.50;99.90
43665;DHT22;29263;48.172;11.484;2023-12-28T06:00:45;1.50;99.90
43665;DHT22;29263;48.172;11.484;2023-12-28T06:03:13;1.50;99.90
43665;DHT22;29263;48.172;11.484;2023-12-28T06:05:39;1.50;99.90
43665;DHT22;29263;48.172;11.484;2023-12-28T06:08:04;1.50;99.90
43665;DHT22;29263;48.172;11.484;2023-12-28T06:10:30;1.50;99.90
43665;DHT22;29263;48.172;11.484;2023-12-28T06:12:56;1.40;99.90
43665;DHT22;29263;48.172;11.484;2023-12-28T06:15:21;1.40;99.90
43665;DHT22;29263;48.172;11.484;2023-12-28T06:17:47;1.30;99.90
43665;DHT22;29263;48.172;11.484;2023-12-28T06:20:13;1.50;99.90
43665;DHT22;29263;48.172;11.484;2023-12-28T06:22:38;1.40;99.90
43665;DHT22;29263;48.172;11.484;2023-12-28T06:25:04;1.40;99.90
43665;DHT22;29263;48.172;11.484;2023-12-28T06:27:30;1.40;99.90
43665;DHT22;29263;48.172;11.484;2023-12-28T06:29:56;1.30;99.90
43665;DHT22;29263;48.172;11.484;2023-12-28T06:32:21;1.30;99.90
43665;DHT22;29263;48.172;11.484;2023-12-28T06:34:47;1.30;99.90
43665;DHT22;29263;48.172;11.484;2023-12-28T06:37:14;1.30;99.90
43665;DHT22;29263;48.172;11.484;2023-12-28T06:39:40;1.30;99.90
43665;DHT22;29263;48.172;11.484;2023-12-28T06:42:05;1.40;99.90
43665;DHT22;29263;48.172;11.484;2023-12-28T06:44:31;1.40;99.90
43665;DHT22;29263;48.172;11.484;2023-12-28T06:46:57;1.30;99.90
43665;DHT22;29263;48.172;11.484;2023-12-28T06:49:23;1.40;99.90
43665;DHT22;29263;48.172;11.484;2023-12-28T06:51:49;1.40;99.90
43665;DHT22;29263;48.172;11.484;2023-12-28T06:54:14;1.40;99.90
43665;DHT22;29263;48.172;11.484;2023-12-28T06:56:41;1.40;99.90
43665;DHT22;29263;48.172;11.484;2023-12-28T06:59:07;1.40;99.90
43665;DHT22;29263;48.172;11.484;2023-12-28T07:01:32;1.40;99.90
43665;DHT22;29263;48.172;11.484;2023-12-28T07:03:58;1.40;99.90
43665;DHT22;29263;48.172;11.484;2023-12-28T07:06:25;1.40;99.90
43665;DHT22;29263;48.172;11.484;2023-12-28T07:08:50;1.40;99.90
43665;DHT22;29263;48.172;11.484;2023-12-28T07:11:16;1.40;99.90
43665;DHT22;29263;48.172;11.484;2023-12-28T07:13:42;1.50;99.90
43665;DHT22;29263;48.172;11.484;2023-12-28T07:16:07;1.50;99.90
43665;DHT22;29263;48.172;11.484;2023-12-28T07:18:33;1.70;99.90
43665;DHT22;29263;48.172;11.484;2023-12-28T07:20:59;1.50;99.90
43665;DHT22;29263;48.172;11.484;2023-12-28T07:23:25;1.50;99.90
43665;DHT22;29263;48.172;11.484;2023-12-28T07:25:51;1.50;99.90
43665;DHT22;29263;48.172;11.484;2023-12-28T07:28:17;1.60;99.90
43665;DHT22;29263;48.172;11.484;2023-12-28T07:30:42;1.60;99.90
43665;DHT22;29263;48.172;11.484;2023-12-28T07:33:08;1.60;99.90
43665;DHT22;29263;48.172;11.484;2023-12-28T07:35:34;1.80;99.90
43665;DHT22;29263;48.172;11.484;2023-12-28T07:38:00;1.90;99.90
43665;DHT22;29263;48.172;11.484;2023-12-28T07:40:26;2.00;99.90
43665;DHT22;29263;48.172;11.484;2023-12-28T07:42:51;1.90;99.90
43665;DHT22;29263;48.172;11.484;2023-12-28T07:45:17;2.00;99.90
43665;DHT22;29263;48.172;11.484;2023-12-28T07:47:48;2.00;99.90
43665;DHT22;29263;48.172;11.484;2023-12-28T07:50:14;2.10;99.90
43665;DHT22;29263;48.172;11.484;2023-12-28T07:52:41;2.10;99.90
43665;DHT22;29263;48.172;11.484;2023-12-28T07:55:07;2.20;99.90
43665;DHT22;29263;48.172;11.484;2023-12-28T07:57:34;2.30;99.90
43665;DHT22;29263;48.172;11.484;2023-12-28T08:00:00;2.30;99.90
43665;DHT22;29263;48.172;11.484;2023-12-28T08:02:25;2.30;99.90
43665;DHT22;29263;48.172;11.484;2023-12-28T08:04:51;2.50;99.90
43665;DHT22;29263;48.172;11.484;2023-12-28T08:07:17;2.60;99.90
43665;DHT22;29263;48.172;11.484;2023-12-28T08:09:42;2.60;99.90
43665;DHT22;29263;48.172;11.484;2023-12-28T08:12:08;2.70;99.90
43665;DHT22;29263;48.172;11.484;2023-12-28T08:14:33;2.80;99.90
43665;DHT22;29263;48.172;11.484;2023-12-28T08:16:59;2.80;99.90
43665;DHT22;29263;48.172;11.484;2023-12-28T08:19:24;3.00;99.90
43665;DHT22;29263;48.172;11.484;2023-12-28T08:21:50;3.10;99.90
43665;DHT22;29263;48.172;11.484;2023-12-28T08:24:16;3.20;99.90
43665;DHT22;29263;48.172;11.484;2023-12-28T08:26:42;3.40;99.90
43665;DHT22;29263;48.172;11.484;2023-12-28T08:29:07;3.60;99.90
43665;DHT22;29263;48.172;11.484;2023-12-28T08:31:35;3.70;99.90
43665;DHT22;29263;48.172;11.484;2023-12-28T08:34:00;3.90;99.90
43665;DHT22;29263;48.172;11.484;2023-12-28T08:36:26;4.00;99.90
43665;DHT22;29263;48.172;11.484;2023-12-28T08:38:51;4.10;99.90
43665;DHT22;29263;48.172;11.484;2023-12-28T08:41:21;4.30;99.90
43665;DHT22;29263;48.172;11.484;2023-12-28T08:43:49;4.50;99.90
43665;DHT22;29263;48.172;11.484;2023-12-28T08:46:15;4.60;99.90
43665;DHT22;29263;48.172;11.484;2023-12-28T08:48:41;4.90;99.20
43665;DHT22;29263;48.172;11.484;2023-12-28T08:51:07;5.10;99.20
43665;DHT22;29263;48.172;11.484;2023-12-28T08:53:34;5.30;98.10
43665;DHT22;29263;48.172;11.484;2023-12-28T08:56:00;5.50;97.90
43665;DHT22;29263;48.172;11.484;2023-12-28T08:58:25;5.80;97.30
43665;DHT22;29263;48.172;11.484;2023-12-28T09:00:51;5.90;96.30
43665;DHT22;29263;48.172;11.484;2023-12-28T09:03:17;6.00;96.80
43665;DHT22;29263;48.172;11.484;2023-12-28T09:05:43;6.20;97.10
43665;DHT22;29263;48.172;11.484;2023-12-28T09:08:08;6.20;96.40
43665;DHT22;29263;48.172;11.484;2023-12-28T09:10:34;6.30;97.10
43665;DHT22;29263;48.172;11.484;2023-12-28T09:13:00;6.40;96.10
43665;DHT22;29263;48.172;11.484;2023-12-28T09:15:25;6.50;95.90
43665;DHT22;29263;48.172;11.484;2023-12-28T09:17:51;6.60;95.10
43665;DHT22;29263;48.172;11.484;2023-12-28T09:20:18;6.80;95.60
43665;DHT22;29263;48.172;11.484;2023-12-28T09:22:44;6.90;95.10
43665;DHT22;29263;48.172;11.484;2023-12-28T09:25:11;7.00;93.50
43665;DHT22;29263;48.172;11.484;2023-12-28T09:27:37;7.20;93.70
43665;DHT22;29263;48.172;11.484;2023-12-28T09:30:02;7.30;91.70
43665;DHT22;29263;48.172;11.484;2023-12-28T09:32:28;7.40;91.80
43665;DHT22;29263;48.172;11.484;2023-12-28T09:34:54;7.60;90.80
43665;DHT22;29263;48.172;11.484;2023-12-28T09:37:19;7.70;91.10
43665;DHT22;29263;48.172;11.484;2023-12-28T09:39:45;7.80;90.10
43665;DHT22;29263;48.172;11.484;2023-12-28T09:42:26;8.00;91.10
43665;DHT22;29263;48.172;11.484;2023-12-28T09:44:54;8.00;90.90
43665;DHT22;29263;48.172;11.484;2023-12-28T09:47:20;8.20;87.60
43665;DHT22;29263;48.172;11.484;2023-12-28T09:49:47;8.40;87.20
43665;DHT22;29263;48.172;11.484;2023-12-28T09:52:13;8.60;86.20
43665;DHT22;29263;48.172;11.484;2023-12-28T09:54:38;8.70;82.70
43665;DHT22;29263;48.172;11.484;2023-12-28T09:57:05;9.00;81.80
43665;DHT22;29263;48.172;11.484;2023-12-28T09:59:31;9.20;80.00
43665;DHT22;29263;48.172;11.484;2023-12-28T10:01:58;9.30;79.40
43665;DHT22;29263;48.172;11.484;2023-12-28T10:04:27;9.50;75.80
43665;DHT22;29263;48.172;11.484;2023-12-28T10:06:54;9.60;77.70
43665;DHT22;29263;48.172;11.484;2023-12-28T10:09:21;9.70;76.20
43665;DHT22;29263;48.172;11.484;2023-12-28T10:11:47;9.80;74.30
43665;DHT22;29263;48.172;11.484;2023-12-28T10:14:13;9.90;76.50
43665;DHT22;29263;48.172;11.484;2023-12-28T10:16:42;9.90;80.30
43665;DHT22;29263;48.172;11.484;2023-12-28T10:19:08;9.90;74.30
43665;DHT22;29263;48.172;11.484;2023-12-28T10:21:33;10.10;73.90
43665;DHT22;29263;48.172;11.484;2023-12-28T10:23:59;10.20;74.90
43665;DHT22;29263;48.172;11.484;2023-12-28T10:26:25;10.20;75.40
43665;DHT22;29263;48.172;11.484;2023-12-28T10:28:59;10.20;75.00
43665;DHT22;29263;48.172;11.484;2023-12-28T10:31:25;10.40;71.40
43665;DHT22;29263;48.172;11.484;2023-12-28T10:33:50;10.40;72.60
43665;DHT22;29263;48.172;11.484;2023-12-28T10:36:16;10.50;71.60
43665;DHT22;29263;48.172;11.484;2023-12-28T10:38:43;10.60;76.20
43665;DHT22;29263;48.172;11.484;2023-12-28T10:41:12;10.60;73.90
43665;DHT22;29263;48.172;11.484;2023-12-28T10:44:06;10.60;76.10
43665;DHT22;29263;48.172;11.484;2023-12-28T10:46:32;10.70;71.00
43665;DHT22;29263;48.172;11.484;2023-12-28T10:49:09;10.70;73.00
43665;DHT22;29263;48.172;11.484;2023-12-28T10:51:36;10.70;69.70
43665;DHT22;29263;48.172;11.484;2023-12-28T10:57:40;10.70;81.10
43665;DHT22;29263;48.172;11.484;2023-12-28T11:00:11;10.60;86.10
43665;DHT22;29263;48.172;11.484;2023-12-28T11:02:47;10.60;82.30
43665;DHT22;29263;48.172;11.484;2023-12-28T11:05:15;10.60;79.00
43665;DHT22;29263;48.172;11.484;2023-12-28T11:07:43;10.60;79.70
43665;DHT22;29263;48.172;11.484;2023-12-28T11:10:09;10.60;77.70
43665;DHT22;29263;48.172;11.484;2023-12-28T11:12:37;10.60;75.40
43665;DHT22;29263;48.172;11.484;2023-12-28T11:15:05;10.60;77.30
43665;DHT22;29263;48.172;11.484;2023-12-28T11:17:31;10.60;77.20
43665;DHT22;29263;48.172;11.484;2023-12-28T11:19:59;10.60;75.70
43665;DHT22;29263;48.172;11.484;2023-12-28T11:22:26;10.60;80.40
43665;DHT22;29263;48.172;11.484;2023-12-28T11:24:56;10.60;78.40
43665;DHT22;29263;48.172;11.484;2023-12-28T11:27:21;10.70;79.00
43665;DHT22;29263;48.172;11.484;2023-12-28T11:29:51;10.70;81.00
43665;DHT22;29263;48.172;11.484;2023-12-28T11:32:19;10.70;86.80
43665;DHT22;29263;48.172;11.484;2023-12-28T11:34:45;10.70;83.60
43665;DHT22;29263;48.172;11.484;2023-12-28T11:37:16;10.70;83.70
43665;DHT22;29263;48.172;11.484;2023-12-28T11:39:44;10.70;84.40
43665;DHT22;29263;48.172;11.484;2023-12-28T11:42:10;10.80;84.10
43665;DHT22;29263;48.172;11.484;2023-12-28T11:44:43;10.80;81.60
43665;DHT22;29263;48.172;11.484;2023-12-28T11:47:13;10.80;80.00
43665;DHT22;29263;48.172;11.484;2023-12-28T11:49:39;10.90;84.00
43665;DHT22;29263;48.172;11.484;2023-12-28T11:52:09;10.90;77.00
43665;DHT22;29263;48.172;11.484;2023-12-28T11:54:36;10.90;76.00
43665;DHT22;29263;48.172;11.484;2023-12-28T11:57:02;11.00;78.90
43665;DHT22;29263;48.172;11.484;2023-12-28T11:59:28;10.90;75.90
43665;DHT22;29263;48.172;11.484;2023-12-28T12:01:53;10.90;76.70
43665;DHT22;29263;48.172;11.484;2023-12-28T12:04:21;11.00;74.30
43665;DHT22;29263;48.172;11.484;2023-12-28T12:06:47;11.00;73.20
43665;DHT22;29263;48.172;11.484;2023-12-28T12:09:14;10.90;73.50
43665;DHT22;29263;48.172;11.484;2023-12-28T12:11:40;10.90;74.30
43665;DHT22;29263;48.172;11.484;2023-12-28T12:14:09;11.00;74.20
43665;DHT22;29263;48.172;11.484;2023-12-28T12:16:35;10.90;76.10
43665;DHT22;29263;48.172;11.484;2023-12-28T12:19:05;10.90;72.80
43665;DHT22;29263;48.172;11.484;2023-12-28T12:21:33;10.90;73.50
43665;DHT22;29263;48.172;11.484;2023-12-28T12:23:58;10.80;78.20
43665;DHT22;29263;48.172;11.484;2023-12-28T12:26:24;10.90;71.80
43665;DHT22;29263;48.172;11.484;2023-12-28T12:28:51;10.90;70.50
43665;DHT22;29263;48.172;11.484;2023-12-28T12:31:17;11.00;69.50
43665;DHT22;29263;48.172;11.484;2023-12-28T12:33:43;11.00;68.30
43665;DHT22;29263;48.172;11.484;2023-12-28T12:36:09;11.10;68.50
43665;DHT22;29263;48.172;11.484;2023-12-28T12:38:35;11.20;68.40
43665;DHT22;29263;48.172;11.484;2023-12-28T12:41:01;11.30;67.80
43665;DHT22;29263;48.172;11.484;2023-12-28T12:43:27;11.30;68.20
43665;DHT22;29263;48.172;11.484;2023-12-28T12:45:53;11.20;69.20
43665;DHT22;29263;48.172;11.484;2023-12-28T12:48:19;11.20;68.80
43665;DHT22;29263;48.172;11.484;2023-12-28T12:50:45;11.20;68.00
43665;DHT22;29263;48.172;11.484;2023-12-28T12:53:10;11.20;69.80
43665;DHT22;29263;48.172;11.484;2023-12-28T12:55:37;11.20;69.10
43665;DHT22;29263;48.172;11.484;2023-12-28T12:58:09;11.20;69.20
43665;DHT22;29263;48.172;11.484;2023-12-28T13:00:35;11.20;70.10
43665;DHT22;29263;48.172;11.484;2023-12-28T13:03:01;11.10;70.10
43665;DHT22;29263;48.172;11.484;2023-12-28T13:05:28;11.10;71.80
43665;DHT22;29263;48.172;11.484;2023-12-28T13:07:54;11.10;70.30
43665;DHT22;29263;48.172;11.484;2023-12-28T13:10:20;11.10;71.10
43665;DHT22;29263;48.172;11.484;2023-12-28T13:12:46;11.10;71.00
43665;DHT22;29263;48.172;11.484;2023-12-28T13:15:11;11.00;72.00
43665;DHT22;29263;48.172;11.484;2023-12-28T13:17:37;11.10;71.90
43665;DHT22;29263;48.172;11.484;2023-12-28T13:20:04;11.10;72.00
43665;DHT22;29263;48.172;11.484;2023-12-28T13:22:32;11.00;72.20
43665;DHT22;29263;48.172;11.484;2023-12-28T13:24:58;11.00;72.70
43665;DHT22;29263;48.172;11.484;2023-12-28T13:27:24;11.00;73.40
43665;DHT22;29263;48.172;11.484;2023-12-28T13:29:49;10.90;73.00
43665;DHT22;29263;48.172;11.484;2023-12-28T13:32:15;11.00;76.30
43665;DHT22;29263;48.172;11.484;2023-12-28T13:34:41;11.00;76.70
43665;DHT22;29263;48.172;11.484;2023-12-28T13:37:06;11.00;74.80
43665;DHT22;29263;48.172;11.484;2023-12-28T13:39:32;11.00;76.80
43665;DHT22;29263;48.172;11.484;2023-12-28T13:42:06;10.90;74.50
43665;DHT22;29263;48.172;11.484;2023-12-28T13:44:33;10.90;74.80
43665;DHT22;29263;48.172;11.484;2023-12-28T13:46:59;10.80;77.20
43665;DHT22;29263;48.172;11.484;2023-12-28T13:49:24;10.80;76.30
43665;DHT22;29263;48.172;11.484;2023-12-28T13:51:51;10.80;74.50
43665;DHT22;29263;48.172;11.484;2023-12-28T13:54:17;10.90;74.20
43665;DHT22;29263;48.172;11.484;2023-12-28T13:56:44;10.90;73.70
43665;DHT22;29263;48.172;11.484;2023-12-28T13:59:11;10.90;75.30
43665;DHT22;29263;48.172;11.484;2023-12-28T14:01:37;10.80;76.20
43665;DHT22;29263;48.172;11.484;2023-12-28T14:04:03;10.80;74.70
43665;DHT22;29263;48.172;11.484;2023-12-28T14:06:29;10.80;75.30
43665;DHT22;29263;48.172;11.484;2023-12-28T14:08:55;10.80;74.70
43665;DHT22;29263;48.172;11.484;2023-12-28T14:11:22;10.80;74.70
43665;DHT22;29263;48.172;11.484;2023-12-28T14:13:47;10.80;76.50
43665;DHT22;29263;48.172;11.484;2023-12-28T14:16:13;10.80;74.80
43665;DHT22;29263;48.172;11.484;2023-12-28T14:18:38;10.80;74.40
43665;DHT22;29263;48.172;11.484;2023-12-28T14:21:07;10.90;74.40
43665;DHT22;29263;48.172;11.484;2023-12-28T14:23:35;10.80;75.10
43665;DHT22;29263;48.172;11.484;2023-12-28T14:26:02;10.80;75.10
43665;DHT22;29263;48.172;11.484;2023-12-28T14:28:30;10.80;75.00
43665;DHT22;29263;48.172;11.484;2023-12-28T14:30:58;10.80;75.70
43665;DHT22;29263;48.172;11.484;2023-12-28T14:33:23;10.80;74.50
43665;DHT22;29263;48.172;11.484;2023-12-28T14:35:49;10.80;75.50
43665;DHT22;29263;48.172;11.484;2023-12-28T14:38:15;10.80;76.20
43665;DHT22;29263;48.172;11.484;2023-12-28T14:40:41;10.70;75.50
43665;DHT22;29263;48.172;11.484;2023-12-28T14:43:06;10.60;76.10
43665;DHT22;29263;48.172;11.484;2023-12-28T14:45:32;10.60;76.80
43665;DHT22;29263;48.172;11.484;2023-12-28T14:47:57;10.60;75.40
43665;DHT22;29263;48.172;11.484;2023-12-28T14:50:23;10.60;75.80
43665;DHT22;29263;48.172;11.484;2023-12-28T14:52:49;10.60;75.50
43665;DHT22;29263;48.172;11.484;2023-12-28T14:55:14;10.60;75.10
43665;DHT22;29263;48.172;11.484;2023-12-28T14:57:40;10.60;75.60
43665;DHT22;29263;48.172;11.484;2023-12-28T15:00:06;10.60;75.20
43665;DHT22;29263;48.172;11.484;2023-12-28T15:02:32;10.50;75.20
43665;DHT22;29263;48.172;11.484;2023-12-28T15:04:57;10.50;74.70
43665;DHT22;29263;48.172;11.484;2023-12-28T15:07:25;10.60;74.30
43665;DHT22;29263;48.172;11.484;2023-12-28T15:09:51;10.60;74.00
43665;DHT22;29263;48.172;11.484;2023-12-28T15:12:21;10.60;73.20
43665;DHT22;29263;48.172;11.484;2023-12-28T15:14:47;10.70;72.50
43665;DHT22;29263;48.172;11.484;2023-12-28T15:17:13;10.70;72.80
43665;DHT22;29263;48.172;11.484;2023-12-28T15:19:39;10.60;74.00
43665;DHT22;29263;48.172;11.484;2023-12-28T15:22:05;10.70;72.80
43665;DHT22;29263;48.172;11.484;2023-12-28T15:24:31;10.60;72.80